Ronkonkoma, New York
Current Conditions -  °F | °C
As of 10:56 PM on Sunday 23 Nov 2014 (Local Time) from KISP Reporting Station
Haze Haze  
Wind Chill: 44°   Ceiling: 4900
Heat Index: 47°   Visibility: 4mi
Dew Point: 44°   Wind: 6mph
Humidity: 90%   Direction: 100°E
Pressure: 30.05"   Gusts: NA
Location:  40.81°N, 73.1°W
Report Text: KISP 240356Z 10005KT 4SM BR BKN049 OVC220 08/07 A3005 RMK AO2 SLP176 T00830067
Loading
Personal Weather Stations






























Interactive Weather Map New forecast layout! Learn more

10-Day Weather Forecast

Advertisements
Track Severe Weather on mobile